createdAt,value
2023-01-29T00:00:39.580Z,1014.43
2023-01-29T00:01:39.674Z,1014.42
2023-01-29T00:02:39.560Z,1014.38
2023-01-29T00:03:39.549Z,1014.38
2023-01-29T00:04:39.537Z,1014.48
2023-01-29T00:05:39.516Z,1014.47
2023-01-29T00:06:39.528Z,1014.51
2023-01-29T00:07:39.499Z,1014.47
2023-01-29T00:08:39.498Z,1014.46
2023-01-29T00:09:39.458Z,1014.50
2023-01-29T00:10:39.459Z,1014.44
2023-01-29T00:11:39.460Z,1014.42
2023-01-29T00:12:39.433Z,1014.42
2023-01-29T00:13:39.418Z,1014.42
2023-01-29T00:14:39.398Z,1014.41
2023-01-29T00:15:39.388Z,1014.43
2023-01-29T00:16:39.435Z,1014.44
2023-01-29T00:17:39.376Z,1014.42
2023-01-29T00:18:39.360Z,1014.45
2023-01-29T00:19:39.333Z,1014.42
2023-01-29T00:20:39.337Z,1014.37
2023-01-29T00:21:39.323Z,1014.37
2023-01-29T00:22:39.310Z,1014.32
2023-01-29T00:23:39.295Z,1014.27
2023-01-29T00:24:39.275Z,1014.27
2023-01-29T00:25:39.257Z,1014.25
2023-01-29T00:26:39.277Z,1014.23
2023-01-29T00:27:39.238Z,1014.25
2023-01-29T00:28:39.227Z,1014.26
2023-01-29T00:29:39.201Z,1014.19
2023-01-29T00:30:39.193Z,1014.19
2023-01-29T00:31:39.285Z,1014.15
2023-01-29T00:32:39.173Z,1014.17
2023-01-29T00:33:39.163Z,1014.20
2023-01-29T00:34:39.143Z,1014.22
2023-01-29T00:35:39.123Z,1014.25
2023-01-29T00:36:39.134Z,1014.28
2023-01-29T00:37:39.101Z,1014.28
2023-01-29T00:38:39.096Z,1014.30
2023-01-29T00:39:47.457Z,1014.29
2023-01-29T00:40:40.072Z,1014.30
2023-01-29T00:41:39.072Z,1014.33
2023-01-29T00:42:39.053Z,1014.31
2023-01-29T00:43:39.021Z,1014.30
2023-01-29T00:44:39.020Z,1014.23
2023-01-29T00:45:39.000Z,1014.20
2023-01-29T00:46:39.042Z,1014.24
2023-01-29T00:47:38.982Z,1014.28
2023-01-29T00:48:38.968Z,1014.35
2023-01-29T00:49:38.946Z,1014.31
2023-01-29T00:50:38.943Z,1014.37
2023-01-29T00:51:38.945Z,1014.35
2023-01-29T00:52:38.908Z,1014.36
2023-01-29T00:53:38.891Z,1014.39
2023-01-29T00:54:38.879Z,1014.38
2023-01-29T00:55:38.869Z,1014.35
2023-01-29T00:56:38.867Z,1014.41
2023-01-29T00:57:38.850Z,1014.34
2023-01-29T00:58:38.848Z,1014.34
2023-01-29T00:59:38.818Z,1014.38
2023-01-29T01:00:38.827Z,1014.36
2023-01-29T01:01:38.810Z,1014.31
2023-01-29T01:02:38.783Z,1014.33
2023-01-29T01:03:38.768Z,1014.32
2023-01-29T01:04:38.762Z,1014.33
2023-01-29T01:05:38.737Z,1014.28
2023-01-29T01:06:38.748Z,1014.25
2023-01-29T01:07:38.714Z,1014.26
2023-01-29T01:08:38.735Z,1014.21
2023-01-29T01:09:38.705Z,1014.21
2023-01-29T01:10:38.684Z,1014.19
2023-01-29T01:11:38.673Z,1014.20
2023-01-29T01:12:38.653Z,1014.17
2023-01-29T01:13:38.836Z,1014.16
2023-01-29T01:14:38.630Z,1014.20
2023-01-29T01:15:38.615Z,1014.16
2023-01-29T01:16:38.652Z,1014.14
2023-01-29T01:17:38.588Z,1014.17
2023-01-29T01:18:38.585Z,1014.19
2023-01-29T01:19:38.562Z,1014.19
2023-01-29T01:20:38.579Z,1014.15
2023-01-29T01:21:38.544Z,1014.17
2023-01-29T01:22:38.524Z,1014.16
2023-01-29T01:23:38.513Z,1014.17
2023-01-29T01:24:38.518Z,1014.16
2023-01-29T01:25:38.483Z,1014.19
2023-01-29T01:26:38.493Z,1014.22
2023-01-29T01:27:38.450Z,1014.17
2023-01-29T01:28:38.447Z,1014.24
2023-01-29T01:29:38.445Z,1014.21
2023-01-29T01:30:38.441Z,1014.20
2023-01-29T01:31:38.468Z,1014.18
2023-01-29T01:32:38.391Z,1014.20
2023-01-29T01:33:38.382Z,1014.24
2023-01-29T01:34:38.369Z,1014.17
2023-01-29T01:35:38.358Z,1014.17
2023-01-29T01:36:38.359Z,1014.19
2023-01-29T01:37:38.335Z,1014.14
2023-01-29T01:38:38.316Z,1014.12
2023-01-29T01:39:38.315Z,1014.11
2023-01-29T01:40:38.286Z,1014.09
2023-01-29T01:41:38.296Z,1014.11
2023-01-29T01:42:38.265Z,1014.04
2023-01-29T01:43:38.246Z,1014.04
2023-01-29T01:44:38.251Z,1014.02
2023-01-29T01:45:38.315Z,1014.01
2023-01-29T01:46:38.233Z,1013.92
2023-01-29T01:47:38.218Z,1013.87
2023-01-29T01:48:38.194Z,1013.90
2023-01-29T01:49:38.175Z,1013.88
2023-01-29T01:50:38.172Z,1013.87
2023-01-29T01:51:38.155Z,1013.84
2023-01-29T01:52:38.178Z,1013.86
2023-01-29T01:53:38.122Z,1013.85
2023-01-29T01:54:38.127Z,1013.82
2023-01-29T01:55:38.092Z,1013.78
2023-01-29T01:56:38.100Z,1013.79
2023-01-29T01:57:38.070Z,1013.77
2023-01-29T01:58:38.063Z,1013.78
2023-01-29T01:59:38.063Z,1013.71
2023-01-29T02:00:38.101Z,1013.76
2023-01-29T02:01:38.041Z,1013.72
2023-01-29T02:02:38.009Z,1013.77
2023-01-29T02:03:37.992Z,1013.76
2023-01-29T02:04:37.990Z,1013.75
2023-01-29T02:05:37.970Z,1013.79
2023-01-29T02:06:37.974Z,1013.79
2023-01-29T02:07:37.959Z,1013.82
2023-01-29T02:08:37.974Z,1013.88
2023-01-29T02:09:37.919Z,1013.92
2023-01-29T02:10:37.910Z,1013.89
2023-01-29T02:11:37.920Z,1013.96
2023-01-29T02:12:37.896Z,1013.96
2023-01-29T02:13:37.868Z,1013.95
2023-01-29T02:14:37.856Z,1013.97
2023-01-29T02:15:37.845Z,1013.98
2023-01-29T02:16:37.847Z,1013.95
2023-01-29T02:17:37.893Z,1013.93
2023-01-29T02:18:37.817Z,1013.92
2023-01-29T02:19:37.800Z,1013.91
2023-01-29T02:20:37.788Z,1013.91
2023-01-29T02:21:37.783Z,1013.88
2023-01-29T02:22:37.765Z,1013.89
2023-01-29T02:23:37.757Z,1013.87
2023-01-29T02:24:37.914Z,1013.94
2023-01-29T02:25:37.713Z,1013.94
2023-01-29T02:26:37.720Z,1013.99
2023-01-29T02:27:37.691Z,1014.01
2023-01-29T02:28:37.681Z,1014.03
2023-01-29T02:29:37.668Z,1013.99
2023-01-29T02:30:37.713Z,1013.99
2023-01-29T02:31:37.724Z,1013.97
2023-01-29T02:32:37.631Z,1013.99
2023-01-29T02:33:37.632Z,1013.95
2023-01-29T02:34:37.603Z,1014.02
2023-01-29T02:35:37.622Z,1014.02
2023-01-29T02:36:37.602Z,1014.01
2023-01-29T02:37:37.571Z,1014.03
2023-01-29T02:38:37.562Z,1014.03
2023-01-29T02:39:37.546Z,1014.08
2023-01-29T02:40:37.531Z,1014.09
2023-01-29T02:41:37.534Z,1014.05
2023-01-29T02:42:37.512Z,1014.05
2023-01-29T02:43:37.488Z,1014.01
2023-01-29T02:44:37.477Z,1014.06
2023-01-29T02:45:37.530Z,1014.05
2023-01-29T02:46:37.532Z,1014.04
2023-01-29T02:47:37.437Z,1014.01
2023-01-29T02:48:37.428Z,1014.04
2023-01-29T02:49:37.434Z,1014.02
2023-01-29T02:50:37.407Z,1014.04
2023-01-29T02:51:37.408Z,1014.06
2023-01-29T02:52:37.377Z,1014.03
2023-01-29T02:53:37.356Z,1013.99
2023-01-29T02:54:37.358Z,1013.96
2023-01-29T02:55:37.339Z,1014.03
2023-01-29T02:56:37.587Z,1014.04
2023-01-29T02:57:37.313Z,1014.04
2023-01-29T02:58:37.314Z,1014.09
2023-01-29T02:59:37.285Z,1014.10
2023-01-29T03:00:37.272Z,1014.16
2023-01-29T03:01:37.285Z,1014.15
2023-01-29T03:02:37.338Z,1014.14
2023-01-29T03:03:37.272Z,1014.16
2023-01-29T03:04:37.231Z,1014.17
2023-01-29T03:05:37.206Z,1014.14
2023-01-29T03:06:37.219Z,1014.09
2023-01-29T03:07:37.181Z,1014.02
2023-01-29T03:08:37.251Z,1014.06
2023-01-29T03:09:37.167Z,1014.04
2023-01-29T03:10:37.176Z,1013.95
2023-01-29T03:11:37.146Z,1013.96
2023-01-29T03:12:37.134Z,1013.95
2023-01-29T03:13:37.102Z,1013.94
2023-01-29T03:14:37.099Z,1013.96
2023-01-29T03:15:37.086Z,1013.95
2023-01-29T03:16:37.113Z,1013.98
2023-01-29T03:17:37.059Z,1013.93
2023-01-29T03:18:37.050Z,1013.89
2023-01-29T03:19:37.030Z,1013.94
2023-01-29T03:20:37.031Z,1013.95
2023-01-29T03:21:37.030Z,1014.00
2023-01-29T03:22:36.988Z,1013.95
2023-01-29T03:23:36.982Z,1013.95
2023-01-29T03:24:36.981Z,1013.89
2023-01-29T03:25:36.958Z,1013.92
2023-01-29T03:26:36.978Z,1013.89
2023-01-29T03:27:36.930Z,1013.89
2023-01-29T03:28:37.184Z,1013.86
2023-01-29T03:29:36.905Z,1013.81
2023-01-29T03:30:36.892Z,1013.80
2023-01-29T03:31:36.998Z,1013.83
2023-01-29T03:32:36.868Z,1013.89
2023-01-29T03:33:36.849Z,1013.89
2023-01-29T03:34:36.843Z,1013.91
2023-01-29T03:35:36.875Z,1013.90
2023-01-29T03:36:36.825Z,1013.89
2023-01-29T03:37:36.807Z,1013.95
2023-01-29T03:38:36.807Z,1013.87
2023-01-29T03:39:36.783Z,1013.96
2023-01-29T03:40:36.763Z,1013.92
2023-01-29T03:41:36.769Z,1013.88
2023-01-29T03:42:36.753Z,1013.90
2023-01-29T03:43:36.732Z,1013.86
2023-01-29T03:44:36.724Z,1013.90
2023-01-29T03:45:36.706Z,1013.87
2023-01-29T03:46:36.704Z,1013.88
2023-01-29T03:47:36.671Z,1013.85
2023-01-29T03:48:36.680Z,1013.80
2023-01-29T03:49:36.640Z,1013.83
2023-01-29T03:50:36.645Z,1013.82
2023-01-29T03:51:36.649Z,1013.87
2023-01-29T03:52:36.609Z,1013.83
2023-01-29T03:53:36.597Z,1013.79
2023-01-29T03:54:36.589Z,1013.80
2023-01-29T03:55:36.579Z,1013.81
2023-01-29T03:56:36.583Z,1013.81
2023-01-29T03:57:36.549Z,1013.76
2023-01-29T03:58:36.536Z,1013.76
2023-01-29T03:59:36.524Z,1013.77
2023-01-29T04:00:36.548Z,1013.78
2023-01-29T04:01:36.518Z,1013.79
2023-01-29T04:02:36.495Z,1013.82
2023-01-29T04:03:36.498Z,1013.78
2023-01-29T04:04:36.483Z,1013.81
2023-01-29T04:05:36.449Z,1013.75
2023-01-29T04:06:36.455Z,1013.74
2023-01-29T04:07:36.428Z,1013.78
2023-01-29T04:08:36.414Z,1013.75
2023-01-29T04:09:36.393Z,1013.75
2023-01-29T04:10:36.401Z,1013.79
2023-01-29T04:11:36.375Z,1013.74
2023-01-29T04:12:36.364Z,1013.74
2023-01-29T04:13:36.347Z,1013.71
2023-01-29T04:14:36.335Z,1013.74
2023-01-29T04:15:36.314Z,1013.73
2023-01-29T04:16:36.354Z,1013.74
2023-01-29T04:17:36.292Z,1013.69
2023-01-29T04:18:36.284Z,1013.71
2023-01-29T04:19:36.274Z,1013.68
2023-01-29T04:20:36.263Z,1013.66
2023-01-29T04:21:36.262Z,1013.61
2023-01-29T04:22:36.235Z,1013.59
2023-01-29T04:23:36.222Z,1013.58
2023-01-29T04:24:36.203Z,1013.62
2023-01-29T04:25:36.194Z,1013.60
2023-01-29T04:26:36.190Z,1013.60
2023-01-29T04:27:36.168Z,1013.57
2023-01-29T04:28:36.153Z,1013.60
2023-01-29T04:29:36.143Z,1013.65
2023-01-29T04:30:36.216Z,1013.59
2023-01-29T04:31:36.216Z,1013.58
2023-01-29T04:32:36.107Z,1013.57
2023-01-29T04:33:36.097Z,1013.55
2023-01-29T04:34:36.070Z,1013.55
2023-01-29T04:35:36.068Z,1013.54
2023-01-29T04:36:36.067Z,1013.52
2023-01-29T04:37:36.043Z,1013.47
2023-01-29T04:38:36.024Z,1013.51
2023-01-29T04:39:36.028Z,1013.47
2023-01-29T04:40:35.995Z,1013.44
2023-01-29T04:41:36.011Z,1013.42
2023-01-29T04:42:35.980Z,1013.41
2023-01-29T04:43:35.964Z,1013.40
2023-01-29T04:44:35.946Z,1013.39
2023-01-29T04:45:35.943Z,1013.36
2023-01-29T04:46:35.933Z,1013.40
2023-01-29T04:47:35.996Z,1013.35
2023-01-29T04:48:35.898Z,1013.37
2023-01-29T04:49:35.889Z,1013.35
2023-01-29T04:50:35.877Z,1013.40
2023-01-29T04:51:35.890Z,1013.39
2023-01-29T04:52:35.843Z,1013.35
2023-01-29T04:53:35.832Z,1013.34
2023-01-29T04:54:35.822Z,1013.31
2023-01-29T04:55:35.818Z,1013.35
2023-01-29T04:56:35.800Z,1013.34
2023-01-29T04:57:35.792Z,1013.32
2023-01-29T04:58:35.773Z,1013.38
2023-01-29T04:59:35.779Z,1013.34
2023-01-29T05:00:35.753Z,1013.30
2023-01-29T05:01:35.821Z,1013.25
2023-01-29T05:02:35.745Z,1013.27
2023-01-29T05:03:35.708Z,1013.25
2023-01-29T05:04:35.694Z,1013.23
2023-01-29T05:05:35.695Z,1013.18
2023-01-29T05:06:35.741Z,1013.17
2023-01-29T05:07:35.660Z,1013.17
2023-01-29T05:08:35.637Z,1013.16
2023-01-29T05:09:35.640Z,1013.13
2023-01-29T05:10:35.617Z,1013.08
2023-01-29T05:11:35.621Z,1013.13
2023-01-29T05:12:35.608Z,1013.09
2023-01-29T05:13:35.888Z,1013.06
2023-01-29T05:14:35.573Z,1013.10
2023-01-29T05:15:35.563Z,1013.09
2023-01-29T05:16:35.567Z,1013.02
2023-01-29T05:17:35.539Z,1013.03
2023-01-29T05:18:35.515Z,1012.99
2023-01-29T05:19:35.505Z,1013.00
2023-01-29T05:20:35.495Z,1013.01
2023-01-29T05:21:35.494Z,1013.01
2023-01-29T05:22:35.486Z,1013.03
2023-01-29T05:23:35.464Z,1013.04
2023-01-29T05:24:35.443Z,1013.03
2023-01-29T05:25:35.437Z,1013.02
2023-01-29T05:26:35.430Z,1012.96
2023-01-29T05:27:35.411Z,1012.98
2023-01-29T05:28:35.384Z,1012.91
2023-01-29T05:29:35.408Z,1012.91
2023-01-29T05:30:35.409Z,1012.89
2023-01-29T05:31:35.415Z,1012.90
2023-01-29T05:32:35.332Z,1012.91
2023-01-29T05:33:35.347Z,1012.90
2023-01-29T05:34:35.328Z,1012.90
2023-01-29T05:35:35.303Z,1012.90
2023-01-29T05:36:35.310Z,1012.93
2023-01-29T05:37:35.302Z,1012.99
2023-01-29T05:38:35.271Z,1013.02
2023-01-29T05:39:35.250Z,1013.00
2023-01-29T05:40:35.246Z,1013.06
2023-01-29T05:41:35.245Z,1013.11
2023-01-29T05:42:35.218Z,1013.07
2023-01-29T05:43:35.215Z,1013.09
2023-01-29T05:44:35.191Z,1013.08
2023-01-29T05:45:35.177Z,1013.08
2023-01-29T05:46:35.220Z,1013.08
2023-01-29T05:47:35.152Z,1013.08
2023-01-29T05:48:35.140Z,1013.08
2023-01-29T05:49:36.723Z,1013.09
2023-01-29T05:50:35.119Z,1013.11
2023-01-29T05:51:35.121Z,1013.09
2023-01-29T05:52:35.093Z,1013.10
2023-01-29T05:53:35.078Z,1013.08
2023-01-29T05:54:35.061Z,1013.06
2023-01-29T05:55:35.049Z,1013.03
2023-01-29T05:56:35.062Z,1012.99
2023-01-29T05:57:35.034Z,1013.01
2023-01-29T05:58:35.009Z,1013.01
2023-01-29T05:59:35.011Z,1013.02
2023-01-29T06:00:34.983Z,1012.97
2023-01-29T06:01:35.037Z,1013.01
2023-01-29T06:02:35.004Z,1012.99
2023-01-29T06:03:34.983Z,1012.97
2023-01-29T06:04:34.953Z,1012.94
2023-01-29T06:05:34.930Z,1012.92
2023-01-29T06:06:34.929Z,1012.88
2023-01-29T06:07:34.904Z,1012.84
2023-01-29T06:08:34.882Z,1012.91
2023-01-29T06:09:34.891Z,1012.81
2023-01-29T06:10:34.871Z,1012.87
2023-01-29T06:11:34.866Z,1012.88
2023-01-29T06:12:34.853Z,1012.88
2023-01-29T06:13:34.832Z,1012.90
2023-01-29T06:14:34.813Z,1012.93
2023-01-29T06:15:34.816Z,1012.98
2023-01-29T06:16:34.845Z,1012.99
2023-01-29T06:17:34.789Z,1013.03
2023-01-29T06:18:34.759Z,1013.06
2023-01-29T06:19:34.753Z,1013.07
2023-01-29T06:20:34.731Z,1013.09
2023-01-29T06:21:34.738Z,1013.07
2023-01-29T06:22:34.723Z,1013.06
2023-01-29T06:23:34.699Z,1013.05
2023-01-29T06:24:34.681Z,1013.05
2023-01-29T06:25:34.681Z,1013.04
2023-01-29T06:26:34.670Z,1013.08
2023-01-29T06:27:34.649Z,1013.11
2023-01-29T06:28:34.637Z,1013.10
2023-01-29T06:29:34.634Z,1013.12
2023-01-29T06:30:34.641Z,1013.08
2023-01-29T06:31:39.347Z,1013.07
2023-01-29T06:32:35.695Z,1013.08
2023-01-29T06:33:34.574Z,1013.12
2023-01-29T06:34:34.555Z,1013.16
2023-01-29T06:35:34.546Z,1013.17
2023-01-29T06:36:34.549Z,1013.18
2023-01-29T06:37:34.526Z,1013.19
2023-01-29T06:38:34.526Z,1013.21
2023-01-29T06:39:34.493Z,1013.19
2023-01-29T06:40:34.509Z,1013.24
2023-01-29T06:41:34.485Z,1013.23
2023-01-29T06:42:34.463Z,1013.26
2023-01-29T06:43:34.453Z,1013.25
2023-01-29T06:44:34.433Z,1013.30
2023-01-29T06:45:34.492Z,1013.31
2023-01-29T06:46:34.417Z,1013.35
2023-01-29T06:47:34.402Z,1013.34
2023-01-29T06:48:34.382Z,1013.44
2023-01-29T06:49:34.374Z,1013.43
2023-01-29T06:50:34.349Z,1013.46
2023-01-29T06:51:34.361Z,1013.50
2023-01-29T06:52:34.342Z,1013.54
2023-01-29T06:53:34.319Z,1013.56
2023-01-29T06:54:34.309Z,1013.59
2023-01-29T06:55:34.290Z,1013.65
2023-01-29T06:56:34.289Z,1013.68
2023-01-29T06:57:34.285Z,1013.68
2023-01-29T06:58:34.247Z,1013.72
2023-01-29T06:59:34.250Z,1013.70
2023-01-29T07:00:34.261Z,1013.75
2023-01-29T07:01:36.319Z,1013.77
2023-01-29T07:02:34.208Z,1013.76
2023-01-29T07:03:34.196Z,1013.80
2023-01-29T07:04:34.186Z,1013.79
2023-01-29T07:05:34.177Z,1013.77
2023-01-29T07:06:34.165Z,1013.74
2023-01-29T07:07:34.138Z,1013.75
2023-01-29T07:08:34.130Z,1013.79
2023-01-29T07:09:34.119Z,1013.86
2023-01-29T07:10:34.108Z,1013.83
2023-01-29T07:11:34.111Z,1013.88
2023-01-29T07:12:34.075Z,1013.88
2023-01-29T07:13:34.053Z,1013.91
2023-01-29T07:14:34.053Z,1013.94
2023-01-29T07:15:35.896Z,1013.90
2023-01-29T07:16:34.132Z,1013.91
2023-01-29T07:17:34.020Z,1013.90
2023-01-29T07:18:34.003Z,1013.89
2023-01-29T07:19:33.988Z,1013.94
2023-01-29T07:20:33.986Z,1013.93
2023-01-29T07:21:33.988Z,1013.97
2023-01-29T07:22:33.955Z,1013.99
2023-01-29T07:23:33.951Z,1014.05
2023-01-29T07:24:33.990Z,1014.10
2023-01-29T07:25:33.919Z,1014.07
2023-01-29T07:26:33.910Z,1014.06
2023-01-29T07:27:33.900Z,1014.05
2023-01-29T07:28:33.870Z,1014.09
2023-01-29T07:29:33.864Z,1014.10
2023-01-29T07:30:33.853Z,1014.07
2023-01-29T07:31:33.949Z,1014.09
2023-01-29T07:32:33.816Z,1014.03
2023-01-29T07:33:33.814Z,1013.99
2023-01-29T07:34:33.790Z,1013.96
2023-01-29T07:35:33.786Z,1014.02
2023-01-29T07:36:33.782Z,1014.00
2023-01-29T07:37:33.772Z,1014.00
2023-01-29T07:38:33.738Z,1013.95
2023-01-29T07:39:33.738Z,1013.97
2023-01-29T07:40:33.729Z,1013.99
2023-01-29T07:41:33.792Z,1014.03
2023-01-29T07:42:33.685Z,1014.02
2023-01-29T07:43:33.674Z,1014.04
2023-01-29T07:44:33.676Z,1013.99
2023-01-29T07:45:33.702Z,1013.95
2023-01-29T07:46:33.655Z,1013.88
2023-01-29T07:47:33.623Z,1013.94
2023-01-29T07:48:33.692Z,1013.88
2023-01-29T07:49:33.601Z,1013.87
2023-01-29T07:50:33.603Z,1013.87
2023-01-29T07:51:33.594Z,1013.90
2023-01-29T07:52:33.568Z,1013.91
2023-01-29T07:53:33.550Z,1013.86
2023-01-29T07:54:33.533Z,1013.85
2023-01-29T07:55:33.526Z,1013.84
2023-01-29T07:56:33.525Z,1013.83
2023-01-29T07:57:33.502Z,1013.76
2023-01-29T07:58:35.643Z,1013.81
2023-01-29T07:59:33.482Z,1013.74
2023-01-29T08:00:33.451Z,1013.67
2023-01-29T08:01:33.462Z,1013.64
2023-01-29T08:02:33.493Z,1013.64
2023-01-29T08:03:33.434Z,1013.58
2023-01-29T08:04:33.408Z,1013.58
2023-01-29T08:05:33.401Z,1013.62
2023-01-29T08:06:33.394Z,1013.42
2023-01-29T08:07:33.380Z,1013.38
2023-01-29T08:08:33.381Z,1013.33
2023-01-29T08:09:33.340Z,1013.24
2023-01-29T08:10:33.327Z,1013.22
2023-01-29T08:11:33.337Z,1013.20
2023-01-29T08:12:33.297Z,1013.20
2023-01-29T08:13:33.304Z,1013.21
2023-01-29T08:14:33.286Z,1013.18
2023-01-29T08:15:33.269Z,1013.20
2023-01-29T08:16:33.308Z,1013.19
2023-01-29T08:17:33.244Z,1013.19
2023-01-29T08:18:33.227Z,1013.14
2023-01-29T08:19:33.225Z,1013.13
2023-01-29T08:20:33.259Z,1013.04
2023-01-29T08:21:33.199Z,1013.01
2023-01-29T08:22:33.177Z,1012.95
2023-01-29T08:23:33.177Z,1012.92
2023-01-29T08:24:47.530Z,1012.91
2023-01-29T08:25:34.183Z,1012.88
2023-01-29T08:26:33.134Z,1012.84
2023-01-29T08:27:33.153Z,1012.87
2023-01-29T08:28:33.092Z,1012.89
2023-01-29T08:29:33.103Z,1012.92
2023-01-29T08:30:33.071Z,1012.96
2023-01-29T08:31:33.088Z,1013.01
2023-01-29T08:32:33.062Z,1013.01
2023-01-29T08:34:34.013Z,1013.00
2023-01-29T08:35:33.000Z,1013.03
2023-01-29T08:36:33.022Z,1013.05
2023-01-29T08:37:32.982Z,1013.10
2023-01-29T08:38:32.970Z,1013.16
2023-01-29T08:39:34.412Z,1013.23
2023-01-29T08:40:32.967Z,1013.19
2023-01-29T08:41:32.936Z,1013.22
2023-01-29T08:42:32.923Z,1013.19
2023-01-29T08:43:32.899Z,1013.16
2023-01-29T08:44:32.896Z,1013.20
2023-01-29T08:45:32.879Z,1013.26
2023-01-29T08:46:32.881Z,1013.32
2023-01-29T08:47:32.863Z,1013.39
2023-01-29T08:48:32.846Z,1013.41
2023-01-29T08:49:32.834Z,1013.42
2023-01-29T08:50:32.817Z,1013.52
2023-01-29T08:51:32.816Z,1013.57
2023-01-29T08:52:32.798Z,1013.60
2023-01-29T08:53:32.796Z,1013.60
2023-01-29T08:54:32.767Z,1013.65
2023-01-29T08:55:32.756Z,1013.66
2023-01-29T08:56:32.745Z,1013.64
2023-01-29T08:57:32.724Z,1013.60
2023-01-29T08:58:32.716Z,1013.57
2023-01-29T08:59:32.763Z,1013.50
2023-01-29T09:00:32.692Z,1013.48
2023-01-29T09:01:32.779Z,1013.49
2023-01-29T09:02:32.710Z,1013.48
2023-01-29T09:03:32.651Z,1013.53
2023-01-29T09:04:32.639Z,1013.56
2023-01-29T09:05:32.613Z,1013.55
2023-01-29T09:06:32.815Z,1013.59
2023-01-29T09:07:32.585Z,1013.64
2023-01-29T09:08:32.583Z,1013.69
2023-01-29T09:09:32.573Z,1013.78
2023-01-29T09:10:32.560Z,1013.81
2023-01-29T09:11:32.555Z,1013.80
2023-01-29T09:12:32.559Z,1013.82
2023-01-29T09:13:32.520Z,1013.75
2023-01-29T09:14:32.501Z,1013.69
2023-01-29T09:15:32.489Z,1013.64
2023-01-29T09:16:32.542Z,1013.59
2023-01-29T09:17:32.464Z,1013.51
2023-01-29T09:18:32.450Z,1013.45
2023-01-29T09:19:32.431Z,1013.42
2023-01-29T09:20:32.438Z,1013.43
2023-01-29T09:21:32.462Z,1013.39
2023-01-29T09:22:32.406Z,1013.43
2023-01-29T09:23:32.385Z,1013.48
2023-01-29T09:24:32.377Z,1013.50
2023-01-29T09:25:32.364Z,1013.41
2023-01-29T09:26:32.418Z,1013.43
2023-01-29T09:27:32.335Z,1013.44
2023-01-29T09:28:32.325Z,1013.42
2023-01-29T09:29:34.136Z,1013.45
2023-01-29T09:30:32.335Z,1013.43
2023-01-29T09:31:32.506Z,1013.41
2023-01-29T09:33:33.274Z,1013.34
2023-01-29T09:34:32.252Z,1013.32
2023-01-29T09:35:32.234Z,1013.25
2023-01-29T09:36:32.248Z,1013.18
2023-01-29T09:37:32.218Z,1013.10
2023-01-29T09:38:32.204Z,1013.08
2023-01-29T09:39:32.183Z,1013.02
2023-01-29T09:40:32.182Z,1013.06
2023-01-29T09:41:32.174Z,1013.08
2023-01-29T09:42:32.145Z,1013.09
2023-01-29T09:43:32.135Z,1013.08
2023-01-29T09:44:32.122Z,1013.09
2023-01-29T09:45:32.103Z,1013.08
2023-01-29T09:46:32.123Z,1012.98
2023-01-29T09:47:32.073Z,1012.91
2023-01-29T09:48:32.073Z,1013.02
2023-01-29T09:49:32.051Z,1012.99
2023-01-29T09:50:32.049Z,1012.97
2023-01-29T09:51:32.056Z,1012.98
2023-01-29T09:52:32.030Z,1012.92
2023-01-29T09:53:32.004Z,1012.97
2023-01-29T09:54:31.993Z,1012.95
2023-01-29T09:55:31.984Z,1012.94
2023-01-29T09:56:31.991Z,1012.98
2023-01-29T09:57:31.966Z,1012.93
2023-01-29T09:58:31.950Z,1012.96
2023-01-29T09:59:31.936Z,1012.95
2023-01-29T10:00:31.920Z,1012.92
2023-01-29T10:01:31.988Z,1012.90
2023-01-29T10:02:31.886Z,1012.92
2023-01-29T10:03:31.883Z,1012.92
2023-01-29T10:04:31.902Z,1012.92
2023-01-29T10:05:31.844Z,1012.93
2023-01-29T10:06:31.851Z,1013.04
2023-01-29T10:07:31.815Z,1013.03
2023-01-29T10:08:31.808Z,1012.98
2023-01-29T10:09:31.803Z,1012.97
2023-01-29T10:10:31.785Z,1012.98
2023-01-29T10:11:31.774Z,1012.96
2023-01-29T10:12:31.764Z,1012.92
2023-01-29T10:13:31.748Z,1012.89
2023-01-29T10:14:31.749Z,1012.86
2023-01-29T10:15:31.724Z,1012.76
2023-01-29T10:16:31.789Z,1012.69
2023-01-29T10:17:31.703Z,1012.70
2023-01-29T10:18:31.692Z,1012.67
2023-01-29T10:19:31.663Z,1012.71
2023-01-29T10:20:31.656Z,1012.66
2023-01-29T10:21:31.663Z,1012.64
2023-01-29T10:22:31.632Z,1012.60
2023-01-29T10:23:34.190Z,1012.53
2023-01-29T10:24:31.630Z,1012.53
2023-01-29T10:25:31.603Z,1012.53
2023-01-29T10:26:31.616Z,1012.51
2023-01-29T10:27:31.560Z,1012.53
2023-01-29T10:28:31.564Z,1012.52
2023-01-29T10:29:31.531Z,1012.57
2023-01-29T10:30:31.557Z,1012.54
2023-01-29T10:31:31.614Z,1012.57
2023-01-29T10:32:31.522Z,1012.58
2023-01-29T10:33:48.841Z,1012.57
2023-01-29T10:34:32.483Z,1012.55
2023-01-29T10:35:31.458Z,1012.54
2023-01-29T10:36:31.448Z,1012.52
2023-01-29T10:37:31.441Z,1012.50
2023-01-29T10:38:31.439Z,1012.41
2023-01-29T10:39:31.421Z,1012.45
2023-01-29T10:40:31.398Z,1012.44
2023-01-29T10:41:31.386Z,1012.36
2023-01-29T10:42:31.386Z,1012.38
2023-01-29T10:43:31.351Z,1012.42
2023-01-29T10:44:31.345Z,1012.42
2023-01-29T10:45:31.336Z,1012.39
2023-01-29T10:46:31.328Z,1012.35
2023-01-29T10:47:31.333Z,1012.34
2023-01-29T10:48:31.306Z,1012.34
2023-01-29T10:49:31.274Z,1012.33
2023-01-29T10:50:31.266Z,1012.29
2023-01-29T10:51:31.256Z,1012.29
2023-01-29T10:52:31.253Z,1012.28
2023-01-29T10:53:31.223Z,1012.22
2023-01-29T10:54:31.222Z,1012.22
2023-01-29T10:55:31.196Z,1012.16
2023-01-29T10:56:31.195Z,1012.11
2023-01-29T10:57:31.184Z,1012.03
2023-01-29T10:58:31.164Z,1012.06
2023-01-29T10:59:31.164Z,1012.07
2023-01-29T11:00:31.150Z,1012.14
2023-01-29T11:01:31.160Z,1012.14
2023-01-29T11:02:31.176Z,1012.09
2023-01-29T11:03:31.147Z,1012.15
2023-01-29T11:04:31.085Z,1012.21
2023-01-29T11:05:31.069Z,1012.20
2023-01-29T11:06:31.064Z,1012.13
2023-01-29T11:07:31.053Z,1012.14
2023-01-29T11:08:31.034Z,1012.15
2023-01-29T11:10:31.010Z,1012.11
2023-01-29T11:11:30.990Z,1012.11
2023-01-29T11:12:31.016Z,1012.08
2023-01-29T11:13:30.959Z,1012.06
2023-01-29T11:14:30.959Z,1012.06
2023-01-29T11:15:30.946Z,1011.97
2023-01-29T11:16:30.944Z,1011.98
2023-01-29T11:17:30.942Z,1011.92
2023-01-29T11:18:30.908Z,1011.95
2023-01-29T11:19:30.890Z,1011.88
2023-01-29T11:20:30.917Z,1011.84
2023-01-29T11:21:30.874Z,1011.81
2023-01-29T11:22:30.871Z,1011.82
2023-01-29T11:23:30.838Z,1011.77
2023-01-29T11:24:30.816Z,1011.77
2023-01-29T11:25:30.818Z,1011.74
2023-01-29T11:26:30.804Z,1011.74
2023-01-29T11:27:30.795Z,1011.71
2023-01-29T11:28:30.779Z,1011.71
2023-01-29T11:29:30.759Z,1011.71
2023-01-29T11:30:30.756Z,1011.72
2023-01-29T11:31:30.794Z,1011.73
2023-01-29T11:32:30.728Z,1011.67
2023-01-29T11:33:30.703Z,1011.71
2023-01-29T11:34:30.699Z,1011.66
2023-01-29T11:35:30.687Z,1011.65
2023-01-29T11:36:30.670Z,1011.66
2023-01-29T11:37:30.660Z,1011.66
2023-01-29T11:38:30.642Z,1011.63
2023-01-29T11:39:30.626Z,1011.64
2023-01-29T11:40:30.626Z,1011.57
2023-01-29T11:41:30.602Z,1011.55
2023-01-29T11:42:30.601Z,1011.45
2023-01-29T11:43:30.578Z,1011.41
2023-01-29T11:44:30.573Z,1011.33
2023-01-29T11:45:30.551Z,1011.33
2023-01-29T11:46:30.598Z,1011.33
2023-01-29T11:47:30.575Z,1011.32
2023-01-29T11:48:30.524Z,1011.36
2023-01-29T11:49:30.499Z,1011.33
2023-01-29T11:50:30.486Z,1011.31
2023-01-29T11:51:30.479Z,1011.36
2023-01-29T11:52:30.471Z,1011.31
2023-01-29T11:53:30.440Z,1011.36
2023-01-29T11:54:30.434Z,1011.35
2023-01-29T11:55:37.989Z,1011.29
2023-01-29T11:56:31.409Z,1011.32
2023-01-29T11:57:30.412Z,1011.29
2023-01-29T11:58:30.388Z,1011.23
2023-01-29T11:59:30.360Z,1011.27
2023-01-29T12:00:30.357Z,1011.26
2023-01-29T12:01:30.344Z,1011.28
2023-01-29T12:02:30.353Z,1011.27
2023-01-29T12:03:30.341Z,1011.28
2023-01-29T12:04:31.379Z,1011.25
2023-01-29T12:05:30.786Z,1011.24
2023-01-29T12:06:30.279Z,1011.14
2023-01-29T12:07:30.266Z,1011.08
2023-01-29T12:08:30.254Z,1011.09